Time;durP1;ratioP1;P1;durP2;ratioP2;P2;SDS_P1;SDS_P2;PMS_P1;PMS_P2;Temp;Humidity;BMP_temperature;BMP_pressure;BME280_temperature;BME280_humidity;BME280_pressure;Samples;Min_cycle;Max_cycle;Signal;HPM_P1;HPM_P2
2024/01/10 00:00:09;;;;;;;;;;;19.10;42.80;;;;;;5014660;28;20296;-61
2024/01/10 00:02:35;;;;;;;;;;;19.10;42.90;;;;;;5014882;28;20059;-61
2024/01/10 00:05:00;;;;;;;;;;;19.10;42.80;;;;;;5031417;28;20019;-61
2024/01/10 00:07:26;;;;;;;;;;;19.00;42.80;;;;;;5032666;28;19968;-61
2024/01/10 00:09:51;;;;;;;;;;;19.00;42.90;;;;;;5035728;28;19944;-61
2024/01/10 00:12:17;;;;;;;;;;;19.00;42.80;;;;;;5043479;28;19936;-61
2024/01/10 00:14:42;;;;;;;;;;;19.00;42.70;;;;;;5038230;28;19932;-61
2024/01/10 00:17:08;;;;;;;;;;;19.00;42.80;;;;;;5043466;28;19921;-61
2024/01/10 00:19:33;;;;;;;;;;;19.00;42.90;;;;;;5035554;28;19929;-61
2024/01/10 00:21:59;;;;;;;;;;;18.90;42.90;;;;;;5041154;28;19964;-61
2024/01/10 00:24:24;;;;;;;;;;;18.90;42.80;;;;;;5054641;28;19931;-61
2024/01/10 00:26:50;;;;;;;;;;;18.90;42.80;;;;;;5056017;28;19931;-61
2024/01/10 00:29:15;;;;;;;;;;;18.90;42.80;;;;;;5055566;28;20394;-60
2024/01/10 00:31:41;;;;;;;;;;;18.90;42.80;;;;;;5055231;28;20036;-61
2024/01/10 00:34:06;;;;;;;;;;;18.90;42.70;;;;;;5055650;28;19931;-61
2024/01/10 00:36:32;;;;;;;;;;;18.80;42.70;;;;;;5055652;28;19929;-61
2024/01/10 00:38:57;;;;;;;;;;;18.80;42.70;;;;;;5036484;28;20016;-61
2024/01/10 00:41:23;;;;;;;;;;;18.80;42.60;;;;;;5037789;28;19970;-61
2024/01/10 00:43:48;;;;;;;;;;;18.80;42.70;;;;;;5056063;28;19925;-61
2024/01/10 00:46:14;;;;;;;;;;;18.80;42.60;;;;;;5036919;28;19947;-61
2024/01/10 00:48:39;;;;;;;;;;;18.80;42.70;;;;;;5042701;28;19932;-61
2024/01/10 00:51:08;;;;;;;;;;;18.80;42.80;;;;;;5017562;28;19931;-61
2024/01/10 00:53:38;;;;;;;;;;;18.70;42.70;;;;;;5034426;28;19925;-61
2024/01/10 00:56:04;;;;;;;;;;;18.80;42.80;;;;;;5035187;28;19925;-61
2024/01/10 00:58:30;;;;;;;;;;;18.70;42.80;;;;;;5035606;28;20020;-60
2024/01/10 01:00:55;;;;;;;;;;;18.70;42.80;;;;;;5034294;28;20020;-61
2024/01/10 01:03:21;;;;;;;;;;;18.80;42.80;;;;;;5034343;28;20329;-61
2024/01/10 01:05:46;;;;;;;;;;;18.70;42.80;;;;;;5041918;28;19972;-61
2024/01/10 01:08:11;;;;;;;;;;;18.70;42.80;;;;;;5036414;28;20346;-61
2024/01/10 01:10:37;;;;;;;;;;;18.80;42.90;;;;;;5055165;28;19932;-61
2024/01/10 01:13:02;;;;;;;;;;;18.80;42.80;;;;;;5036613;28;20330;-61
2024/01/10 01:15:28;;;;;;;;;;;18.80;42.80;;;;;;5054530;28;19925;-61
2024/01/10 01:17:53;;;;;;;;;;;18.80;42.80;;;;;;5036768;28;19924;-61
2024/01/10 01:20:19;;;;;;;;;;;18.80;42.80;;;;;;5037490;28;19976;-61
2024/01/10 01:22:44;;;;;;;;;;;18.80;43.50;;;;;;5054247;28;19932;-61
2024/01/10 01:25:10;;;;;;;;;;;18.80;42.80;;;;;;5054412;28;20432;-61
2024/01/10 01:27:35;;;;;;;;;;;18.80;42.70;;;;;;5055127;28;20412;-61
2024/01/10 01:30:01;;;;;;;;;;;18.80;42.80;;;;;;5053934;28;19971;-61
2024/01/10 01:32:26;;;;;;;;;;;18.90;42.70;;;;;;5017408;28;19957;-61
2024/01/10 01:34:52;;;;;;;;;;;18.90;42.70;;;;;;4996857;28;20031;-61
2024/01/10 01:37:17;;;;;;;;;;;18.90;42.80;;;;;;5054535;28;19932;-61
2024/01/10 01:39:43;;;;;;;;;;;18.90;42.70;;;;;;5053758;28;19925;-61
2024/01/10 01:42:08;;;;;;;;;;;18.90;42.70;;;;;;5053678;28;19925;-61
2024/01/10 01:44:34;;;;;;;;;;;18.90;42.70;;;;;;5052220;28;19931;-61
2024/01/10 01:46:59;;;;;;;;;;;18.90;42.60;;;;;;5034379;28;19929;-61
2024/01/10 01:49:25;;;;;;;;;;;18.90;42.70;;;;;;5018279;28;19925;-61
2024/01/10 01:51:51;;;;;;;;;;;19.00;42.70;;;;;;5034669;28;20410;-61
2024/01/10 01:54:16;;;;;;;;;;;19.00;42.60;;;;;;5016374;28;20282;-61
2024/01/10 01:56:42;;;;;;;;;;;19.00;42.60;;;;;;5016024;28;19960;-61
2024/01/10 01:59:08;;;;;;;;;;;19.00;42.60;;;;;;5034208;28;19925;-61
2024/01/10 02:01:33;;;;;;;;;;;19.00;42.60;;;;;;5034605;28;19972;-61
2024/01/10 02:04:00;;;;;;;;;;;19.00;42.60;;;;;;5015604;28;19948;-61
2024/01/10 02:06:26;;;;;;;;;;;19.00;42.50;;;;;;5033643;28;19925;-61
2024/01/10 02:08:52;;;;;;;;;;;19.00;42.50;;;;;;5033372;28;19929;-61
2024/01/10 02:11:17;;;;;;;;;;;19.00;42.50;;;;;;5033617;28;20265;-61
2024/01/10 02:13:43;;;;;;;;;;;19.00;42.50;;;;;;5034315;28;19931;-60
2024/01/10 02:16:09;;;;;;;;;;;19.00;42.50;;;;;;5033296;28;19925;-61
2024/01/10 02:18:37;;;;;;;;;;;19.00;42.50;;;;;;5012189;28;20389;-61
2024/01/10 02:21:03;;;;;;;;;;;19.00;42.50;;;;;;5014033;28;20369;-61
2024/01/10 02:23:29;;;;;;;;;;;19.00;42.60;;;;;;5014010;28;19931;-61
2024/01/10 02:25:54;;;;;;;;;;;19.00;42.50;;;;;;5032260;28;19924;-61
2024/01/10 02:28:20;;;;;;;;;;;19.10;42.50;;;;;;5047577;28;19932;-61
2024/01/10 02:30:47;;;;;;;;;;;19.10;42.60;;;;;;5048014;28;19931;-61
2024/01/10 02:33:12;;;;;;;;;;;19.10;42.60;;;;;;5053073;28;19929;-61
2024/01/10 02:35:38;;;;;;;;;;;19.10;42.60;;;;;;5053647;28;19947;-61
2024/01/10 02:38:03;;;;;;;;;;;19.10;42.50;;;;;;5052033;28;19925;-61
2024/01/10 02:40:29;;;;;;;;;;;19.10;42.50;;;;;;5035677;28;19931;-61
2024/01/10 02:42:54;;;;;;;;;;;19.10;42.50;;;;;;5053312;28;19931;-61
2024/01/10 02:45:20;;;;;;;;;;;19.10;42.50;;;;;;5034776;28;19986;-61
2024/01/10 02:47:45;;;;;;;;;;;19.10;42.60;;;;;;5053479;28;19931;-61
2024/01/10 02:50:11;;;;;;;;;;;19.10;42.60;;;;;;5053359;28;20291;-61
2024/01/10 02:52:36;;;;;;;;;;;19.10;42.50;;;;;;5034561;28;19933;-61
2024/01/10 02:55:02;;;;;;;;;;;19.10;42.50;;;;;;5051045;28;19978;-61
2024/01/10 02:57:27;;;;;;;;;;;19.10;42.50;;;;;;5053443;28;20455;-61
2024/01/10 02:59:53;;;;;;;;;;;19.20;42.60;;;;;;5034561;28;19925;-61
2024/01/10 03:02:18;;;;;;;;;;;19.20;42.50;;;;;;5033268;28;19931;-61
2024/01/10 03:04:44;;;;;;;;;;;19.20;42.50;;;;;;5032995;28;20023;-61
2024/01/10 03:07:10;;;;;;;;;;;19.20;42.60;;;;;;5031502;28;20027;-61
2024/01/10 03:09:35;;;;;;;;;;;19.20;42.50;;;;;;5015666;28;19925;-61
2024/01/10 03:12:01;;;;;;;;;;;19.20;42.50;;;;;;5033151;28;19925;-61
2024/01/10 03:14:26;;;;;;;;;;;19.20;42.50;;;;;;5014970;28;19951;-61
2024/01/10 03:16:53;;;;;;;;;;;19.20;42.50;;;;;;5012099;28;19953;-61
2024/01/10 03:19:18;;;;;;;;;;;19.20;42.50;;;;;;4995733;28;19925;-61
2024/01/10 03:21:44;;;;;;;;;;;19.20;42.40;;;;;;5012664;28;19925;-61
2024/01/10 03:24:09;;;;;;;;;;;19.20;42.50;;;;;;5011689;28;19948;-61
2024/01/10 03:26:35;;;;;;;;;;;19.20;42.40;;;;;;5012680;28;19925;-61
2024/01/10 03:29:00;;;;;;;;;;;19.20;42.40;;;;;;5011574;28;20378;-61
2024/01/10 03:31:26;;;;;;;;;;;19.20;42.70;;;;;;5012617;28;20304;-61
2024/01/10 03:33:53;;;;;;;;;;;19.20;42.40;;;;;;5012098;28;19929;-61
2024/01/10 03:36:18;;;;;;;;;;;19.30;42.60;;;;;;5011498;28;20289;-61
2024/01/10 03:38:44;;;;;;;;;;;19.20;42.50;;;;;;5012109;28;20020;-61
2024/01/10 03:41:13;;;;;;;;;;;19.30;42.50;;;;;;5010875;28;19932;-61
2024/01/10 03:43:39;;;;;;;;;;;19.30;42.50;;;;;;4995526;28;20020;-61
2024/01/10 03:46:05;;;;;;;;;;;19.30;42.40;;;;;;5015418;28;20028;-61
2024/01/10 03:48:31;;;;;;;;;;;19.30;42.40;;;;;;5015005;28;19926;-61
2024/01/10 03:50:56;;;;;;;;;;;19.30;42.50;;;;;;5015365;28;20266;-61
2024/01/10 03:53:22;;;;;;;;;;;19.30;42.50;;;;;;4998472;28;20273;-61
2024/01/10 03:55:47;;;;;;;;;;;19.30;42.40;;;;;;5015084;28;19925;-61
2024/01/10 03:58:13;;;;;;;;;;;19.30;42.40;;;;;;5015063;28;19932;-61
2024/01/10 04:00:38;;;;;;;;;;;19.30;42.40;;;;;;5015460;28;20008;-62
2024/01/10 04:03:04;;;;;;;;;;;19.30;42.40;;;;;;5014307;28;19988;-61
2024/01/10 04:05:29;;;;;;;;;;;19.30;42.30;;;;;;4997940;28;20377;-61
2024/01/10 04:07:56;;;;;;;;;;;19.30;42.30;;;;;;4997402;28;20416;-61
2024/01/10 04:10:22;;;;;;;;;;;19.30;42.30;;;;;;5014626;28;19926;-61
2024/01/10 04:12:47;;;;;;;;;;;19.30;42.30;;;;;;4997775;28;19933;-61
2024/01/10 04:15:13;;;;;;;;;;;19.40;42.40;;;;;;4997433;28;20017;-61
2024/01/10 04:17:38;;;;;;;;;;;19.40;42.40;;;;;;5014585;28;19933;-61
2024/01/10 04:20:04;;;;;;;;;;;19.40;42.40;;;;;;5015261;28;20270;-62
2024/01/10 04:22:30;;;;;;;;;;;19.40;42.40;;;;;;5015201;28;19925;-61
2024/01/10 04:24:57;;;;;;;;;;;19.40;42.30;;;;;;4953787;28;1747980;-61
2024/01/10 04:27:22;;;;;;;;;;;19.40;42.30;;;;;;5016650;28;19925;-61
2024/01/10 04:29:47;;;;;;;;;;;19.40;42.30;;;;;;4998645;28;20008;-61
2024/01/10 04:32:13;;;;;;;;;;;19.40;42.30;;;;;;5015310;28;19933;-61
2024/01/10 04:34:38;;;;;;;;;;;19.40;42.30;;;;;;5016450;28;19941;-61
2024/01/10 04:37:04;;;;;;;;;;;19.40;43.00;;;;;;4998237;28;19925;-61
2024/01/10 04:39:29;;;;;;;;;;;19.40;42.20;;;;;;5015359;28;19949;-61
2024/01/10 04:41:55;;;;;;;;;;;19.40;42.30;;;;;;4998394;28;20254;-61
2024/01/10 04:44:20;;;;;;;;;;;19.40;42.20;;;;;;4998640;28;20012;-61
2024/01/10 04:46:46;;;;;;;;;;;19.40;42.20;;;;;;5018787;28;20442;-61
2024/01/10 04:49:11;;;;;;;;;;;19.40;42.10;;;;;;5017872;28;19939;-61
2024/01/10 04:51:37;;;;;;;;;;;19.40;42.20;;;;;;5035526;28;20015;-61
2024/01/10 04:54:03;;;;;;;;;;;19.40;42.20;;;;;;5034837;28;19929;-61
2024/01/10 04:56:28;;;;;;;;;;;19.40;42.10;;;;;;5035813;28;20284;-61
2024/01/10 04:58:53;;;;;;;;;;;19.40;42.10;;;;;;5034565;28;19925;-61
2024/01/10 05:01:19;;;;;;;;;;;19.40;42.10;;;;;;5026603;28;20345;-61
2024/01/10 05:03:45;;;;;;;;;;;19.40;42.10;;;;;;5035537;28;19932;-62
2024/01/10 05:06:11;;;;;;;;;;;19.40;42.10;;;;;;5033628;28;19929;-61
2024/01/10 05:08:36;;;;;;;;;;;19.40;42.00;;;;;;5035533;28;20028;-61
2024/01/10 05:11:02;;;;;;;;;;;19.40;42.00;;;;;;5034959;28;19932;-61
2024/01/10 05:13:27;;;;;;;;;;;19.40;42.00;;;;;;5034748;28;19964;-61
2024/01/10 05:15:53;;;;;;;;;;;19.50;42.00;;;;;;5034903;28;19939;-62
2024/01/10 05:18:20;;;;;;;;;;;19.40;42.00;;;;;;5035390;28;19978;-61
2024/01/10 05:20:46;;;;;;;;;;;19.50;42.10;;;;;;5034458;28;19979;-61
2024/01/10 05:23:11;;;;;;;;;;;19.50;42.10;;;;;;5034552;28;19933;-61
2024/01/10 05:25:36;;;;;;;;;;;19.50;42.00;;;;;;5021376;28;19928;-61
2024/01/10 05:28:02;;;;;;;;;;;19.50;42.00;;;;;;5015965;28;19932;-61
2024/01/10 05:30:27;;;;;;;;;;;19.50;42.00;;;;;;5044539;28;19928;-61
2024/01/10 05:32:53;;;;;;;;;;;19.50;42.00;;;;;;5025764;28;20406;-61
2024/01/10 05:35:18;;;;;;;;;;;19.50;41.90;;;;;;5029748;28;19925;-61
2024/01/10 05:37:44;;;;;;;;;;;19.50;42.00;;;;;;5034581;28;19994;-61
2024/01/10 05:40:10;;;;;;;;;;;19.50;41.90;;;;;;5033990;28;19929;-61
2024/01/10 05:42:36;;;;;;;;;;;19.50;41.90;;;;;;5013187;28;19933;-61
2024/01/10 05:45:03;;;;;;;;;;;19.50;42.00;;;;;;5012867;28;19929;-61
2024/01/10 05:47:29;;;;;;;;;;;19.50;42.00;;;;;;5040935;28;19970;-61
2024/01/10 05:49:54;;;;;;;;;;;19.50;41.90;;;;;;5052475;28;20019;-61
2024/01/10 05:52:22;;;;;;;;;;;19.50;41.90;;;;;;5054389;28;19925;-61
2024/01/10 05:54:48;;;;;;;;;;;19.50;42.00;;;;;;5053735;28;20300;-61
2024/01/10 05:57:13;;;;;;;;;;;19.50;41.90;;;;;;5044792;28;19991;-61
2024/01/10 05:59:39;;;;;;;;;;;19.50;42.20;;;;;;5034833;28;20361;-61
2024/01/10 06:02:04;;;;;;;;;;;19.50;41.90;;;;;;5033158;28;19925;-61
2024/01/10 06:04:31;;;;;;;;;;;19.50;41.90;;;;;;5039928;28;19931;-61
2024/01/10 06:06:59;;;;;;;;;;;19.50;41.90;;;;;;5052737;28;19925;-62
2024/01/10 06:09:25;;;;;;;;;;;19.50;41.90;;;;;;5053299;28;20012;-61
2024/01/10 06:11:50;;;;;;;;;;;19.50;41.80;;;;;;5054412;28;20011;-61
2024/01/10 06:14:16;;;;;;;;;;;19.50;41.90;;;;;;5053714;28;19979;-61
2024/01/10 06:16:41;;;;;;;;;;;19.50;41.90;;;;;;5053173;28;20269;-61
2024/01/10 06:19:07;;;;;;;;;;;19.50;41.90;;;;;;5036066;28;19943;-61
2024/01/10 06:21:32;;;;;;;;;;;19.50;41.90;;;;;;5054234;28;19925;-61
2024/01/10 06:23:58;;;;;;;;;;;19.50;42.60;;;;;;5034517;28;19925;-61
2024/01/10 06:26:23;;;;;;;;;;;19.50;41.90;;;;;;5053449;28;19925;-62
2024/01/10 06:28:49;;;;;;;;;;;19.50;41.90;;;;;;5053955;28;19939;-61
2024/01/10 06:31:14;;;;;;;;;;;19.50;41.80;;;;;;5052634;28;19925;-61
2024/01/10 06:33:40;;;;;;;;;;;19.50;41.70;;;;;;5044014;28;19932;-62
2024/01/10 06:36:05;;;;;;;;;;;19.50;41.80;;;;;;5033204;28;20335;-61
2024/01/10 06:38:31;;;;;;;;;;;19.50;41.70;;;;;;5041203;28;20392;-61
2024/01/10 06:40:56;;;;;;;;;;;19.50;41.90;;;;;;5033045;28;19929;-62
2024/01/10 06:43:22;;;;;;;;;;;19.50;41.70;;;;;;5015853;28;19933;-61
2024/01/10 06:45:48;;;;;;;;;;;19.50;41.80;;;;;;5032764;28;19929;-61
2024/01/10 06:48:13;;;;;;;;;;;19.60;41.80;;;;;;5015453;28;19925;-62
2024/01/10 06:50:39;;;;;;;;;;;19.60;41.90;;;;;;5035512;28;19971;-61
2024/01/10 06:53:04;;;;;;;;;;;19.60;41.80;;;;;;5052025;28;19995;-61
2024/01/10 06:55:30;;;;;;;;;;;19.60;41.80;;;;;;5052803;28;19925;-61
2024/01/10 06:57:55;;;;;;;;;;;19.60;41.80;;;;;;5051613;28;19992;-61
2024/01/10 07:00:21;;;;;;;;;;;19.60;41.70;;;;;;5051957;28;19932;-60
2024/01/10 07:02:48;;;;;;;;;;;19.60;41.70;;;;;;5052428;28;19978;-61
2024/01/10 07:05:14;;;;;;;;;;;19.60;41.70;;;;;;5052496;28;20419;-61
2024/01/10 07:07:39;;;;;;;;;;;19.60;41.80;;;;;;5052395;28;19924;-61
2024/01/10 07:10:05;;;;;;;;;;;19.60;41.80;;;;;;5052057;28;20388;-61
2024/01/10 07:12:31;;;;;;;;;;;19.60;41.70;;;;;;5034653;28;20377;-61
2024/01/10 07:14:57;;;;;;;;;;;19.60;41.70;;;;;;5052380;28;20019;-61
2024/01/10 07:17:22;;;;;;;;;;;19.60;41.70;;;;;;5052994;28;20019;-61
2024/01/10 07:19:48;;;;;;;;;;;19.60;41.70;;;;;;5039995;28;19925;-61
2024/01/10 07:22:14;;;;;;;;;;;19.60;41.70;;;;;;5014565;28;19925;-61
2024/01/10 07:24:39;;;;;;;;;;;19.60;41.80;;;;;;5013941;28;20269;-61
2024/01/10 07:27:06;;;;;;;;;;;19.60;41.70;;;;;;5023521;28;20019;-61
2024/01/10 07:29:32;;;;;;;;;;;19.60;41.70;;;;;;5011960;28;19926;-61
2024/01/10 07:31:57;;;;;;;;;;;19.60;41.70;;;;;;5009483;28;19933;-61
2024/01/10 07:34:23;;;;;;;;;;;19.60;41.70;;;;;;5032346;28;19952;-61
2024/01/10 07:36:48;;;;;;;;;;;19.60;41.70;;;;;;5015665;28;20007;-61
2024/01/10 07:39:15;;;;;;;;;;;19.60;41.70;;;;;;5032591;28;20324;-61
2024/01/10 07:41:41;;;;;;;;;;;19.60;41.70;;;;;;5031920;28;19931;-61
2024/01/10 07:44:09;;;;;;;;;;;19.60;41.60;;;;;;5033107;28;19925;-62
2024/01/10 07:46:37;;;;;;;;;;;19.60;41.60;;;;;;5023844;28;19925;-62
2024/01/10 07:49:03;;;;;;;;;;;19.60;41.70;;;;;;5051217;28;20363;-61
2024/01/10 07:51:29;;;;;;;;;;;19.60;41.60;;;;;;5052887;28;20011;-62
2024/01/10 07:53:55;;;;;;;;;;;19.60;41.60;;;;;;5052040;28;19987;-62
2024/01/10 07:56:20;;;;;;;;;;;19.60;41.60;;;;;;5033944;28;19952;-61
2024/01/10 07:58:46;;;;;;;;;;;19.60;41.40;;;;;;5052524;28;20023;-61
2024/01/10 08:01:11;;;;;;;;;;;19.60;41.50;;;;;;5039679;28;19983;-65
2024/01/10 08:03:37;;;;;;;;;;;19.60;41.60;;;;;;5014452;28;19929;-62
2024/01/10 08:06:02;;;;;;;;;;;19.60;41.50;;;;;;5032565;28;19925;-62
2024/01/10 08:08:28;;;;;;;;;;;19.60;41.40;;;;;;5014921;28;20415;-62
2024/01/10 08:10:54;;;;;;;;;;;19.60;41.40;;;;;;5031547;28;20011;-62
2024/01/10 08:13:19;;;;;;;;;;;19.70;41.50;;;;;;5032612;28;20384;-61
2024/01/10 08:15:45;;;;;;;;;;;19.60;41.50;;;;;;5032206;28;19925;-62
2024/01/10 08:18:10;;;;;;;;;;;19.60;41.40;;;;;;5014599;28;20568;-62
2024/01/10 08:20:35;;;;;;;;;;;19.60;41.50;;;;;;5033012;28;19932;-61
2024/01/10 08:23:01;;;;;;;;;;;19.60;41.60;;;;;;5031620;28;20462;-62
2024/01/10 08:25:27;;;;;;;;;;;19.60;41.60;;;;;;5032392;28;19936;-61
2024/01/10 08:27:55;;;;;;;;;;;19.60;41.60;;;;;;5032209;28;20020;-62
2024/01/10 08:30:21;;;;;;;;;;;19.60;41.70;;;;;;5034816;28;19929;-61
2024/01/10 08:32:47;;;;;;;;;;;19.60;41.50;;;;;;5036406;28;20364;-62
2024/01/10 08:35:12;;;;;;;;;;;19.60;41.60;;;;;;5035961;28;20016;-62
2024/01/10 08:37:40;;;;;;;;;;;19.60;41.50;;;;;;5035286;28;20365;-62
2024/01/10 08:40:09;;;;;;;;;;;19.60;41.50;;;;;;5044327;28;20292;-62
2024/01/10 08:42:35;;;;;;;;;;;19.60;41.60;;;;;;5055855;28;19921;-62
2024/01/10 08:45:00;;;;;;;;;;;19.60;41.60;;;;;;5037203;28;19924;-62
2024/01/10 08:47:26;;;;;;;;;;;19.60;41.50;;;;;;5055688;28;19931;-63
2024/01/10 08:49:52;;;;;;;;;;;19.60;41.60;;;;;;5055858;28;19935;-62
2024/01/10 08:52:17;;;;;;;;;;;19.60;41.70;;;;;;5055066;28;20280;-61
2024/01/10 08:54:43;;;;;;;;;;;19.60;41.60;;;;;;5055215;28;19970;-61
2024/01/10 08:57:08;;;;;;;;;;;19.60;41.60;;;;;;5055454;28;19975;-62
2024/01/10 08:59:34;;;;;;;;;;;19.60;41.60;;;;;;5054912;28;20380;-61
2024/01/10 09:01:59;;;;;;;;;;;19.60;41.60;;;;;;5037435;28;19924;-61
2024/01/10 09:04:25;;;;;;;;;;;19.60;41.50;;;;;;5055039;28;19933;-61
2024/01/10 09:06:51;;;;;;;;;;;19.70;41.70;;;;;;5054924;28;19925;-61
2024/01/10 09:09:20;;;;;;;;;;;19.60;41.70;;;;;;5055371;28;19924;-61
2024/01/10 09:11:47;;;;;;;;;;;19.70;41.80;;;;;;5055642;28;19929;-61
2024/01/10 09:14:13;;;;;;;;;;;19.70;41.60;;;;;;5053109;28;19925;-62
2024/01/10 09:16:38;;;;;;;;;;;19.70;41.70;;;;;;5033521;28;19926;-61
2024/01/10 09:19:04;;;;;;;;;;;19.70;41.70;;;;;;5028380;28;20377;-62
2024/01/10 09:21:29;;;;;;;;;;;19.70;41.80;;;;;;5035543;28;19932;-61
2024/01/10 09:23:55;;;;;;;;;;;19.70;41.70;;;;;;5034378;28;20408;-62
2024/01/10 09:26:21;;;;;;;;;;;19.70;41.80;;;;;;5033987;28;19932;-62
2024/01/10 09:28:46;;;;;;;;;;;19.70;41.80;;;;;;5034742;28;20304;-62
2024/01/10 09:31:12;;;;;;;;;;;19.80;41.70;;;;;;5015935;28;20020;-62
2024/01/10 09:33:37;;;;;;;;;;;19.80;41.80;;;;;;5033600;28;20331;-61
2024/01/10 09:36:03;;;;;;;;;;;19.80;41.70;;;;;;5034694;28;20012;-62
2024/01/10 09:38:29;;;;;;;;;;;19.80;41.70;;;;;;5035048;28;20316;-61
2024/01/10 09:40:56;;;;;;;;;;;19.80;41.70;;;;;;5014718;28;20308;-62
2024/01/10 09:43:22;;;;;;;;;;;19.80;41.70;;;;;;5029418;28;20019;-62
2024/01/10 09:45:48;;;;;;;;;;;19.80;41.70;;;;;;5054922;28;20015;-63
2024/01/10 09:48:13;;;;;;;;;;;19.80;41.60;;;;;;5031343;28;19968;-62
2024/01/10 09:50:39;;;;;;;;;;;19.80;41.60;;;;;;5005254;28;19925;-63
2024/01/10 09:53:07;;;;;;;;;;;19.80;41.10;;;;;;5054354;28;19925;-62
2024/01/10 09:55:34;;;;;;;;;;;19.90;41.30;;;;;;5035770;28;20384;-62
2024/01/10 09:58:01;;;;;;;;;;;19.90;41.40;;;;;;5053456;28;20273;-62
2024/01/10 10:00:26;;;;;;;;;;;19.80;41.30;;;;;;5020043;28;20352;-62
2024/01/10 10:02:52;;;;;;;;;;;19.80;41.40;;;;;;5035675;28;20411;-63
2024/01/10 10:05:17;;;;;;;;;;;19.90;41.50;;;;;;5018956;28;19929;-62
2024/01/10 10:07:44;;;;;;;;;;;19.90;41.50;;;;;;5036493;28;19990;-62
2024/01/10 10:10:09;;;;;;;;;;;19.90;41.40;;;;;;5053081;28;20391;-62
2024/01/10 10:12:55;;;;;;;;;;;19.90;41.50;;;;;;5054401;28;19924;-63
2024/01/10 10:15:21;;;;;;;;;;;19.80;41.40;;;;;;5052506;28;19987;-62
2024/01/10 10:17:48;;;;;;;;;;;19.80;41.40;;;;;;5053855;28;20368;-63
2024/01/10 10:20:14;;;;;;;;;;;19.80;41.40;;;;;;5036231;28;20380;-64
2024/01/10 10:22:40;;;;;;;;;;;19.80;41.40;;;;;;5034912;28;20075;-63
2024/01/10 10:25:05;;;;;;;;;;;19.80;41.40;;;;;;5053311;28;20007;-62
2024/01/10 10:27:32;;;;;;;;;;;19.80;41.40;;;;;;5054189;28;19931;-62
2024/01/10 10:29:57;;;;;;;;;;;19.80;41.50;;;;;;5035310;28;19925;-62
2024/01/10 10:32:23;;;;;;;;;;;19.80;41.50;;;;;;5036296;28;20376;-61
2024/01/10 10:34:48;;;;;;;;;;;19.70;41.20;;;;;;5053790;28;19932;-61
2024/01/10 10:37:14;;;;;;;;;;;19.70;41.30;;;;;;5042524;28;19968;-61
2024/01/10 10:39:41;;;;;;;;;;;19.70;41.30;;;;;;5016111;28;20435;-61
2024/01/10 10:42:07;;;;;;;;;;;19.70;41.40;;;;;;5033640;28;19925;-61
2024/01/10 10:44:32;;;;;;;;;;;19.70;41.40;;;;;;5033080;28;19925;-61
2024/01/10 10:46:58;;;;;;;;;;;19.70;41.40;;;;;;5033462;28;20031;-61
2024/01/10 10:49:27;;;;;;;;;;;19.70;41.60;;;;;;5033732;28;20002;-62
2024/01/10 10:51:52;;;;;;;;;;;19.60;41.50;;;;;;5014920;28;19935;-62
2024/01/10 10:54:18;;;;;;;;;;;19.70;41.60;;;;;;5047130;28;19936;-62
2024/01/10 10:56:43;;;;;;;;;;;19.60;41.40;;;;;;5053676;28;20384;-61
2024/01/10 10:59:09;;;;;;;;;;;19.60;41.50;;;;;;5034716;28;20364;-62
2024/01/10 11:01:34;;;;;;;;;;;19.60;41.10;;;;;;5035575;28;19925;-63
2024/01/10 11:04:00;;;;;;;;;;;19.60;41.00;;;;;;5034472;28;20384;-62
2024/01/10 11:06:25;;;;;;;;;;;19.60;41.10;;;;;;5052750;28;19931;-62
2024/01/10 11:08:53;;;;;;;;;;;19.60;41.20;;;;;;5052464;28;19986;-60
2024/01/10 11:11:32;;;;;;;;;;;19.60;41.00;;;;;;5034988;28;19935;-62
2024/01/10 11:14:16;;;;;;;;;;;19.60;41.10;;;;;;5053432;28;19929;-62
2024/01/10 11:16:54;;;;;;;;;;;19.60;41.10;;;;;;5053430;28;19931;-62
2024/01/10 11:19:25;;;;;;;;;;;19.60;41.00;;;;;;5052709;28;19924;-62
2024/01/10 11:22:16;;;;;;;;;;;19.60;41.00;;;;;;5017864;28;19924;-62
2024/01/10 11:24:42;;;;;;;;;;;19.60;41.10;;;;;;5000070;28;19929;-62
2024/01/10 11:27:10;;;;;;;;;;;19.60;41.10;;;;;;4994719;28;19929;-64
2024/01/10 11:29:39;;;;;;;;;;;19.60;41.10;;;;;;5026685;28;19926;-62
2024/01/10 11:32:06;;;;;;;;;;;19.60;41.10;;;;;;5013498;28;19926;-62
2024/01/10 11:34:32;;;;;;;;;;;19.60;41.20;;;;;;4995038;28;19980;-62
2024/01/10 11:37:08;;;;;;;;;;;19.60;41.20;;;;;;5013034;28;19925;-62
2024/01/10 11:39:35;;;;;;;;;;;19.60;41.30;;;;;;5012427;28;19948;-62
2024/01/10 11:42:01;;;;;;;;;;;19.60;41.10;;;;;;5013133;28;19925;-63
2024/01/10 11:44:27;;;;;;;;;;;19.60;41.30;;;;;;5013426;28;19925;-63
2024/01/10 11:46:53;;;;;;;;;;;19.60;41.20;;;;;;5012130;28;20762;-66
2024/01/10 11:49:18;;;;;;;;;;;19.70;41.20;;;;;;5008654;28;20392;-62
2024/01/10 11:51:44;;;;;;;;;;;19.70;41.20;;;;;;5012338;28;20332;-63
2024/01/10 11:54:10;;;;;;;;;;;19.70;41.20;;;;;;5013747;28;19971;-62
2024/01/10 11:56:42;;;;;;;;;;;19.70;41.20;;;;;;5032745;28;19968;-61
2024/01/10 11:59:11;;;;;;;;;;;19.70;41.20;;;;;;5032573;28;19957;-62
2024/01/10 12:01:40;;;;;;;;;;;19.70;41.20;;;;;;5031822;28;19925;-63
2024/01/10 12:04:05;;;;;;;;;;;19.70;41.20;;;;;;5033696;28;19975;-63
2024/01/10 12:06:31;;;;;;;;;;;19.70;41.10;;;;;;5036798;28;19925;-63
2024/01/10 12:08:57;;;;;;;;;;;19.70;41.10;;;;;;5035737;28;20384;-63
2024/01/10 12:11:22;;;;;;;;;;;19.70;40.90;;;;;;5014951;28;19983;-62
2024/01/10 12:13:48;;;;;;;;;;;19.70;40.90;;;;;;5019089;28;19929;-63
2024/01/10 12:16:13;;;;;;;;;;;19.70;41.00;;;;;;5010331;28;19926;-62
2024/01/10 12:18:39;;;;;;;;;;;19.70;41.00;;;;;;5016860;28;19925;-62
2024/01/10 12:21:05;;;;;;;;;;;19.70;41.10;;;;;;5031226;28;19929;-62
2024/01/10 12:23:31;;;;;;;;;;;19.80;41.20;;;;;;5035479;28;19956;-62
2024/01/10 12:25:57;;;;;;;;;;;19.80;41.20;;;;;;5035974;28;20063;-62
2024/01/10 12:28:23;;;;;;;;;;;19.80;41.20;;;;;;5036229;28;20004;-61
2024/01/10 12:30:48;;;;;;;;;;;19.80;41.20;;;;;;5035354;28;19931;-62
2024/01/10 12:33:14;;;;;;;;;;;19.80;41.20;;;;;;5035808;28;19940;-61
2024/01/10 12:35:42;;;;;;;;;;;19.80;41.20;;;;;;5035865;28;20000;-61
2024/01/10 12:38:10;;;;;;;;;;;19.80;41.20;;;;;;5035046;28;19984;-61
2024/01/10 12:40:36;;;;;;;;;;;19.80;41.20;;;;;;5018427;28;19932;-61
2024/01/10 12:43:05;;;;;;;;;;;19.80;41.10;;;;;;5017453;28;19931;-61
2024/01/10 12:45:30;;;;;;;;;;;19.80;41.20;;;;;;5035720;28;20370;-61
2024/01/10 12:47:59;;;;;;;;;;;19.80;41.20;;;;;;5017548;28;20016;-63
2024/01/10 12:50:25;;;;;;;;;;;19.80;41.20;;;;;;5017591;28;19947;-62
2024/01/10 12:52:51;;;;;;;;;;;19.80;41.10;;;;;;5035905;28;19925;-62
2024/01/10 12:55:17;;;;;;;;;;;19.80;41.10;;;;;;5036113;28;19932;-62
2024/01/10 12:57:43;;;;;;;;;;;19.80;41.00;;;;;;5035091;28;20324;-61
2024/01/10 13:00:09;;;;;;;;;;;19.90;41.10;;;;;;5035290;28;19929;-60
2024/01/10 13:02:37;;;;;;;;;;;19.90;41.20;;;;;;5036050;28;19929;-61
2024/01/10 13:05:05;;;;;;;;;;;19.80;41.10;;;;;;5034690;28;19925;-61
2024/01/10 13:07:34;;;;;;;;;;;19.90;41.20;;;;;;5035634;28;20348;-61
2024/01/10 13:09:59;;;;;;;;;;;19.90;41.20;;;;;;5035361;28;19992;-61
2024/01/10 13:12:25;;;;;;;;;;;19.90;40.90;;;;;;5034702;28;19932;-61
2024/01/10 13:14:50;;;;;;;;;;;19.90;40.90;;;;;;5035202;28;19932;-61
2024/01/10 13:17:16;;;;;;;;;;;19.90;40.60;;;;;;5017537;28;20011;-61
2024/01/10 13:19:45;;;;;;;;;;;19.90;40.10;;;;;;5017238;28;19925;-61
2024/01/10 13:22:13;;;;;;;;;;;19.90;40.30;;;;;;5017676;28;19925;-61
2024/01/10 13:24:39;;;;;;;;;;;19.90;40.40;;;;;;5013846;28;19942;-62
2024/01/10 13:27:04;;;;;;;;;;;19.90;40.40;;;;;;5014719;28;19971;-61
2024/01/10 13:29:30;;;;;;;;;;;19.90;40.40;;;;;;4997849;28;19932;-62
2024/01/10 13:31:55;;;;;;;;;;;19.90;40.60;;;;;;5015111;28;20008;-62
2024/01/10 13:34:21;;;;;;;;;;;19.90;40.80;;;;;;5014463;28;19929;-61
2024/01/10 13:36:47;;;;;;;;;;;19.90;40.90;;;;;;5015284;28;20320;-61
2024/01/10 13:39:15;;;;;;;;;;;19.90;40.90;;;;;;5014458;28;20060;-61
2024/01/10 13:41:40;;;;;;;;;;;20.00;41.00;;;;;;5015359;28;20136;-62
2024/01/10 13:44:06;;;;;;;;;;;20.00;41.10;;;;;;5014940;28;20012;-65
2024/01/10 13:46:31;;;;;;;;;;;20.00;41.20;;;;;;5024710;28;19926;-62
2024/01/10 13:48:57;;;;;;;;;;;20.00;41.00;;;;;;5034577;28;20296;-62
2024/01/10 13:51:22;;;;;;;;;;;20.10;41.00;;;;;;5017057;28;19975;-62
2024/01/10 13:53:47;;;;;;;;;;;20.00;41.00;;;;;;5033959;28;19929;-62
2024/01/10 13:56:13;;;;;;;;;;;20.00;41.00;;;;;;5034417;28;19925;-61
2024/01/10 13:58:38;;;;;;;;;;;20.00;41.00;;;;;;5034733;28;19975;-61
2024/01/10 14:01:04;;;;;;;;;;;20.10;41.10;;;;;;5016163;28;20280;-61
2024/01/10 14:03:29;;;;;;;;;;;20.10;41.00;;;;;;5034543;28;19931;-61
2024/01/10 14:05:55;;;;;;;;;;;20.10;41.00;;;;;;5034239;28;19925;-61
2024/01/10 14:08:21;;;;;;;;;;;20.10;40.90;;;;;;4998300;28;19930;-61